sensor_id;sensor_type;location;lat;lon;timestamp;temperature;humidity
44117;DHT22;29781;49.480;8.512;2022-11-20T00:01:36;4.50;99.90
44117;DHT22;29781;49.480;8.512;2022-11-20T00:04:01;4.50;99.90
44117;DHT22;29781;49.480;8.512;2022-11-20T00:06:27;4.60;99.90
44117;DHT22;29781;49.480;8.512;2022-11-20T00:08:54;4.60;99.90
44117;DHT22;29781;49.480;8.512;2022-11-20T00:11:21;4.60;99.90
44117;DHT22;29781;49.480;8.512;2022-11-20T00:13:48;4.70;99.90
44117;DHT22;29781;49.480;8.512;2022-11-20T00:16:15;4.60;99.90
44117;DHT22;29781;49.480;8.512;2022-11-20T00:18:40;4.50;99.90
44117;DHT22;29781;49.480;8.512;2022-11-20T00:21:10;4.50;99.90
44117;DHT22;29781;49.480;8.512;2022-11-20T00:23:36;4.70;99.90
44117;DHT22;29781;49.480;8.512;2022-11-20T00:26:11;4.80;99.90
44117;DHT22;29781;49.480;8.512;2022-11-20T00:28:37;4.80;99.90
44117;DHT22;29781;49.480;8.512;2022-11-20T00:31:03;4.70;99.90
44117;DHT22;29781;49.480;8.512;2022-11-20T00:33:29;4.80;99.90
44117;DHT22;29781;49.480;8.512;2022-11-20T00:35:59;4.90;99.90
44117;DHT22;29781;49.480;8.512;2022-11-20T00:38:24;4.90;99.90
44117;DHT22;29781;49.480;8.512;2022-11-20T00:40:54;4.90;99.90
44117;DHT22;29781;49.480;8.512;2022-11-20T00:43:19;4.90;99.90
44117;DHT22;29781;49.480;8.512;2022-11-20T00:45:45;4.60;99.90
44117;DHT22;29781;49.480;8.512;2022-11-20T00:48:10;4.40;99.90
44117;DHT22;29781;49.480;8.512;2022-11-20T00:50:36;4.10;99.90
44117;DHT22;29781;49.480;8.512;2022-11-20T00:53:01;4.20;99.90
44117;DHT22;29781;49.480;8.512;2022-11-20T00:55:27;4.30;99.90
44117;DHT22;29781;49.480;8.512;2022-11-20T00:57:52;4.40;99.90
44117;DHT22;29781;49.480;8.512;2022-11-20T01:00:18;4.50;99.90
44117;DHT22;29781;49.480;8.512;2022-11-20T01:02:43;4.60;99.90
44117;DHT22;29781;49.480;8.512;2022-11-20T01:05:09;4.50;99.90
44117;DHT22;29781;49.480;8.512;2022-11-20T01:07:34;4.50;99.90
44117;DHT22;29781;49.480;8.512;2022-11-20T01:10:00;4.70;99.90
44117;DHT22;29781;49.480;8.512;2022-11-20T01:12:25;4.80;99.90
44117;DHT22;29781;49.480;8.512;2022-11-20T01:14:51;4.90;99.90
44117;DHT22;29781;49.480;8.512;2022-11-20T01:17:16;4.90;99.90
44117;DHT22;29781;49.480;8.512;2022-11-20T01:19:42;4.80;99.90
44117;DHT22;29781;49.480;8.512;2022-11-20T01:22:07;4.50;99.90
44117;DHT22;29781;49.480;8.512;2022-11-20T01:24:33;3.90;99.90
44117;DHT22;29781;49.480;8.512;2022-11-20T01:26:58;3.60;99.90
44117;DHT22;29781;49.480;8.512;2022-11-20T01:29:24;3.60;99.90
44117;DHT22;29781;49.480;8.512;2022-11-20T01:31:50;3.50;99.90
44117;DHT22;29781;49.480;8.512;2022-11-20T01:34:17;3.70;99.90
44117;DHT22;29781;49.480;8.512;2022-11-20T01:36:43;3.80;99.90
44117;DHT22;29781;49.480;8.512;2022-11-20T01:39:13;3.60;99.90
44117;DHT22;29781;49.480;8.512;2022-11-20T01:41:39;3.70;99.90
44117;DHT22;29781;49.480;8.512;2022-11-20T01:47:07;3.80;99.90
44117;DHT22;29781;49.480;8.512;2022-11-20T01:49:37;3.80;99.90
44117;DHT22;29781;49.480;8.512;2022-11-20T01:52:04;3.80;99.90
44117;DHT22;29781;49.480;8.512;2022-11-20T01:54:44;3.80;99.90
44117;DHT22;29781;49.480;8.512;2022-11-20T01:57:11;3.80;99.90
44117;DHT22;29781;49.480;8.512;2022-11-20T01:59:42;3.70;99.90
44117;DHT22;29781;49.480;8.512;2022-11-20T02:02:09;3.80;99.90
44117;DHT22;29781;49.480;8.512;2022-11-20T02:04:35;4.10;99.90
44117;DHT22;29781;49.480;8.512;2022-11-20T02:07:00;4.30;99.90
44117;DHT22;29781;49.480;8.512;2022-11-20T02:09:27;4.20;99.90
44117;DHT22;29781;49.480;8.512;2022-11-20T02:11:53;4.10;99.90
44117;DHT22;29781;49.480;8.512;2022-11-20T02:14:19;3.90;99.90
44117;DHT22;29781;49.480;8.512;2022-11-20T02:16:46;4.10;99.90
44117;DHT22;29781;49.480;8.512;2022-11-20T02:19:15;4.50;99.90
44117;DHT22;29781;49.480;8.512;2022-11-20T02:24:13;4.60;99.90
44117;DHT22;29781;49.480;8.512;2022-11-20T02:29:44;4.70;99.90
44117;DHT22;29781;49.480;8.512;2022-11-20T02:32:18;4.70;99.90
44117;DHT22;29781;49.480;8.512;2022-11-20T02:34:43;4.70;99.90
44117;DHT22;29781;49.480;8.512;2022-11-20T02:37:09;4.80;99.90
44117;DHT22;29781;49.480;8.512;2022-11-20T02:39:34;4.80;99.90
44117;DHT22;29781;49.480;8.512;2022-11-20T02:42:00;4.90;99.90
44117;DHT22;29781;49.480;8.512;2022-11-20T02:44:26;4.90;99.90
44117;DHT22;29781;49.480;8.512;2022-11-20T02:46:51;4.80;99.90
44117;DHT22;29781;49.480;8.512;2022-11-20T02:49:17;4.80;99.90
44117;DHT22;29781;49.480;8.512;2022-11-20T02:51:42;4.80;99.90
44117;DHT22;29781;49.480;8.512;2022-11-20T02:54:08;4.80;99.90
44117;DHT22;29781;49.480;8.512;2022-11-20T02:56:33;4.90;99.90
44117;DHT22;29781;49.480;8.512;2022-11-20T02:58:59;4.90;99.90
44117;DHT22;29781;49.480;8.512;2022-11-20T03:01:25;4.90;99.90
44117;DHT22;29781;49.480;8.512;2022-11-20T03:03:50;4.80;99.90
44117;DHT22;29781;49.480;8.512;2022-11-20T03:06:17;4.90;99.90
44117;DHT22;29781;49.480;8.512;2022-11-20T03:08:43;4.90;99.90
44117;DHT22;29781;49.480;8.512;2022-11-20T03:11:09;4.90;99.90
44117;DHT22;29781;49.480;8.512;2022-11-20T03:13:35;4.90;99.90
44117;DHT22;29781;49.480;8.512;2022-11-20T03:16:07;4.90;99.90
44117;DHT22;29781;49.480;8.512;2022-11-20T03:18:33;4.90;99.90
44117;DHT22;29781;49.480;8.512;2022-11-20T03:20:59;4.90;99.90
44117;DHT22;29781;49.480;8.512;2022-11-20T03:23:24;4.90;99.90
44117;DHT22;29781;49.480;8.512;2022-11-20T03:25:50;4.90;99.90
44117;DHT22;29781;49.480;8.512;2022-11-20T03:28:15;4.90;99.90
44117;DHT22;29781;49.480;8.512;2022-11-20T03:30:41;4.90;99.90
44117;DHT22;29781;49.480;8.512;2022-11-20T03:33:06;4.90;99.90
44117;DHT22;29781;49.480;8.512;2022-11-20T03:35:32;4.90;99.90
44117;DHT22;29781;49.480;8.512;2022-11-20T03:37:57;4.90;99.90
44117;DHT22;29781;49.480;8.512;2022-11-20T03:40:23;4.90;99.90
44117;DHT22;29781;49.480;8.512;2022-11-20T03:42:48;4.90;99.90
44117;DHT22;29781;49.480;8.512;2022-11-20T03:45:15;4.90;99.90
44117;DHT22;29781;49.480;8.512;2022-11-20T03:47:40;4.90;99.90
44117;DHT22;29781;49.480;8.512;2022-11-20T03:50:06;4.90;99.90
44117;DHT22;29781;49.480;8.512;2022-11-20T03:52:32;4.90;99.90
44117;DHT22;29781;49.480;8.512;2022-11-20T03:54:57;4.90;99.90
44117;DHT22;29781;49.480;8.512;2022-11-20T03:57:23;4.90;99.90
44117;DHT22;29781;49.480;8.512;2022-11-20T03:59:48;5.00;99.90
44117;DHT22;29781;49.480;8.512;2022-11-20T04:02:14;5.00;99.90
44117;DHT22;29781;49.480;8.512;2022-11-20T04:04:39;5.00;99.90
44117;DHT22;29781;49.480;8.512;2022-11-20T04:07:05;5.10;99.90
44117;DHT22;29781;49.480;8.512;2022-11-20T04:09:30;5.10;99.90
44117;DHT22;29781;49.480;8.512;2022-11-20T04:11:56;5.20;99.90
44117;DHT22;29781;49.480;8.512;2022-11-20T04:14:22;5.10;99.90
44117;DHT22;29781;49.480;8.512;2022-11-20T04:16:47;5.00;99.90
44117;DHT22;29781;49.480;8.512;2022-11-20T04:19:14;5.00;99.90
44117;DHT22;29781;49.480;8.512;2022-11-20T04:21:40;5.00;99.90
44117;DHT22;29781;49.480;8.512;2022-11-20T04:24:05;5.10;99.90
44117;DHT22;29781;49.480;8.512;2022-11-20T04:26:31;4.90;99.90
44117;DHT22;29781;49.480;8.512;2022-11-20T04:28:57;4.80;99.90
44117;DHT22;29781;49.480;8.512;2022-11-20T04:31:24;4.70;99.90
44117;DHT22;29781;49.480;8.512;2022-11-20T04:33:50;4.80;99.90
44117;DHT22;29781;49.480;8.512;2022-11-20T04:36:19;4.80;99.90
44117;DHT22;29781;49.480;8.512;2022-11-20T04:38:45;4.70;99.90
44117;DHT22;29781;49.480;8.512;2022-11-20T04:41:14;4.50;99.90
44117;DHT22;29781;49.480;8.512;2022-11-20T04:43:40;4.40;99.90
44117;DHT22;29781;49.480;8.512;2022-11-20T04:46:05;4.30;99.90
44117;DHT22;29781;49.480;8.512;2022-11-20T04:48:31;4.30;99.90
44117;DHT22;29781;49.480;8.512;2022-11-20T04:50:56;4.40;99.90
44117;DHT22;29781;49.480;8.512;2022-11-20T04:53:22;4.50;99.90
44117;DHT22;29781;49.480;8.512;2022-11-20T04:55:48;4.50;99.90
44117;DHT22;29781;49.480;8.512;2022-11-20T04:58:14;4.40;99.90
44117;DHT22;29781;49.480;8.512;2022-11-20T05:00:39;4.30;99.90
44117;DHT22;29781;49.480;8.512;2022-11-20T05:03:05;4.20;99.90
44117;DHT22;29781;49.480;8.512;2022-11-20T05:05:31;4.30;99.90
44117;DHT22;29781;49.480;8.512;2022-11-20T05:07:57;4.30;99.90
44117;DHT22;29781;49.480;8.512;2022-11-20T05:10:23;4.40;99.90
44117;DHT22;29781;49.480;8.512;2022-11-20T05:12:48;4.60;99.90
44117;DHT22;29781;49.480;8.512;2022-11-20T05:15:14;4.80;99.90
44117;DHT22;29781;49.480;8.512;2022-11-20T05:17:40;5.00;99.90
44117;DHT22;29781;49.480;8.512;2022-11-20T05:20:05;5.00;99.90
44117;DHT22;29781;49.480;8.512;2022-11-20T05:22:31;5.00;99.90
44117;DHT22;29781;49.480;8.512;2022-11-20T05:24:57;5.00;99.90
44117;DHT22;29781;49.480;8.512;2022-11-20T05:27:22;5.10;99.90
44117;DHT22;29781;49.480;8.512;2022-11-20T05:29:48;5.10;99.90
44117;DHT22;29781;49.480;8.512;2022-11-20T05:32:14;5.10;99.90
44117;DHT22;29781;49.480;8.512;2022-11-20T05:34:39;5.10;99.90
44117;DHT22;29781;49.480;8.512;2022-11-20T05:37:04;5.20;99.90
44117;DHT22;29781;49.480;8.512;2022-11-20T05:39:30;5.30;99.90
44117;DHT22;29781;49.480;8.512;2022-11-20T05:41:55;5.20;99.90
44117;DHT22;29781;49.480;8.512;2022-11-20T05:44:39;5.20;99.90
44117;DHT22;29781;49.480;8.512;2022-11-20T05:47:05;5.20;99.90
44117;DHT22;29781;49.480;8.512;2022-11-20T05:49:31;5.20;99.90
44117;DHT22;29781;49.480;8.512;2022-11-20T05:51:56;5.20;99.90
44117;DHT22;29781;49.480;8.512;2022-11-20T05:54:22;5.20;99.90
44117;DHT22;29781;49.480;8.512;2022-11-20T05:56:47;5.20;99.90
44117;DHT22;29781;49.480;8.512;2022-11-20T05:59:13;5.20;99.90
44117;DHT22;29781;49.480;8.512;2022-11-20T06:01:38;5.10;99.90
44117;DHT22;29781;49.480;8.512;2022-11-20T06:04:04;5.10;99.90
44117;DHT22;29781;49.480;8.512;2022-11-20T06:06:29;5.10;99.90
44117;DHT22;29781;49.480;8.512;2022-11-20T06:08:55;5.10;99.90
44117;DHT22;29781;49.480;8.512;2022-11-20T06:11:21;5.10;99.90
44117;DHT22;29781;49.480;8.512;2022-11-20T06:13:47;5.00;99.90
44117;DHT22;29781;49.480;8.512;2022-11-20T06:16:13;4.80;99.90
44117;DHT22;29781;49.480;8.512;2022-11-20T06:18:39;4.70;99.90
44117;DHT22;29781;49.480;8.512;2022-11-20T06:21:05;4.90;99.90
44117;DHT22;29781;49.480;8.512;2022-11-20T06:23:32;5.00;99.90
44117;DHT22;29781;49.480;8.512;2022-11-20T06:26:00;5.10;99.90
44117;DHT22;29781;49.480;8.512;2022-11-20T06:28:26;5.10;99.90
44117;DHT22;29781;49.480;8.512;2022-11-20T06:30:51;5.10;99.90
44117;DHT22;29781;49.480;8.512;2022-11-20T06:33:17;5.10;99.90
44117;DHT22;29781;49.480;8.512;2022-11-20T06:35:42;5.20;99.90
44117;DHT22;29781;49.480;8.512;2022-11-20T06:38:08;5.30;99.90
44117;DHT22;29781;49.480;8.512;2022-11-20T06:40:33;5.30;99.90
44117;DHT22;29781;49.480;8.512;2022-11-20T06:42:59;5.00;99.90
44117;DHT22;29781;49.480;8.512;2022-11-20T06:45:24;4.90;99.90
44117;DHT22;29781;49.480;8.512;2022-11-20T06:47:50;4.70;99.90
44117;DHT22;29781;49.480;8.512;2022-11-20T06:50:15;4.80;99.90
44117;DHT22;29781;49.480;8.512;2022-11-20T06:52:41;4.90;99.90
44117;DHT22;29781;49.480;8.512;2022-11-20T06:55:06;4.80;99.90
44117;DHT22;29781;49.480;8.512;2022-11-20T06:57:32;4.70;99.90
44117;DHT22;29781;49.480;8.512;2022-11-20T06:59:58;4.70;99.90
44117;DHT22;29781;49.480;8.512;2022-11-20T07:02:23;4.90;99.90
44117;DHT22;29781;49.480;8.512;2022-11-20T07:04:48;5.00;99.90
44117;DHT22;29781;49.480;8.512;2022-11-20T07:07:14;5.20;99.90
44117;DHT22;29781;49.480;8.512;2022-11-20T07:09:40;5.20;99.90
44117;DHT22;29781;49.480;8.512;2022-11-20T07:12:05;5.10;99.90
44117;DHT22;29781;49.480;8.512;2022-11-20T07:14:31;4.90;99.90
44117;DHT22;29781;49.480;8.512;2022-11-20T07:16:56;4.80;99.90
44117;DHT22;29781;49.480;8.512;2022-11-20T07:19:22;4.70;99.90
44117;DHT22;29781;49.480;8.512;2022-11-20T07:21:47;4.70;99.90
44117;DHT22;29781;49.480;8.512;2022-11-20T07:24:13;4.70;99.90
44117;DHT22;29781;49.480;8.512;2022-11-20T07:26:38;4.70;99.90
44117;DHT22;29781;49.480;8.512;2022-11-20T07:29:04;4.80;99.90
44117;DHT22;29781;49.480;8.512;2022-11-20T07:31:29;4.90;99.90
44117;DHT22;29781;49.480;8.512;2022-11-20T07:33:55;5.00;99.90
44117;DHT22;29781;49.480;8.512;2022-11-20T07:36:20;4.90;99.90
44117;DHT22;29781;49.480;8.512;2022-11-20T07:38:46;4.80;99.90
44117;DHT22;29781;49.480;8.512;2022-11-20T07:41:11;4.80;99.90
44117;DHT22;29781;49.480;8.512;2022-11-20T07:43:37;4.80;99.90
44117;DHT22;29781;49.480;8.512;2022-11-20T07:46:02;4.70;99.90
44117;DHT22;29781;49.480;8.512;2022-11-20T07:48:29;4.90;99.90
44117;DHT22;29781;49.480;8.512;2022-11-20T07:50:55;5.10;99.90
44117;DHT22;29781;49.480;8.512;2022-11-20T07:53:20;5.20;99.90
44117;DHT22;29781;49.480;8.512;2022-11-20T07:55:47;5.40;99.90
44117;DHT22;29781;49.480;8.512;2022-11-20T07:58:12;5.60;99.90
44117;DHT22;29781;49.480;8.512;2022-11-20T08:00:39;5.70;99.90
44117;DHT22;29781;49.480;8.512;2022-11-20T08:03:05;5.80;99.90
44117;DHT22;29781;49.480;8.512;2022-11-20T08:05:31;5.90;99.90
44117;DHT22;29781;49.480;8.512;2022-11-20T08:07:56;5.90;99.90
44117;DHT22;29781;49.480;8.512;2022-11-20T08:10:22;6.00;99.90
44117;DHT22;29781;49.480;8.512;2022-11-20T08:12:48;6.10;99.90
44117;DHT22;29781;49.480;8.512;2022-11-20T08:15:33;6.10;99.90
44117;DHT22;29781;49.480;8.512;2022-11-20T08:17:59;6.10;99.90
44117;DHT22;29781;49.480;8.512;2022-11-20T08:20:25;6.10;99.90
44117;DHT22;29781;49.480;8.512;2022-11-20T08:22:50;6.20;99.90
44117;DHT22;29781;49.480;8.512;2022-11-20T08:25:17;6.10;99.90
44117;DHT22;29781;49.480;8.512;2022-11-20T08:27:43;6.20;99.90
44117;DHT22;29781;49.480;8.512;2022-11-20T08:30:09;6.10;99.90
44117;DHT22;29781;49.480;8.512;2022-11-20T08:32:34;6.00;99.90
44117;DHT22;29781;49.480;8.512;2022-11-20T08:35:02;6.00;99.90
44117;DHT22;29781;49.480;8.512;2022-11-20T08:37:28;6.00;99.90
44117;DHT22;29781;49.480;8.512;2022-11-20T08:39:54;6.10;99.90
44117;DHT22;29781;49.480;8.512;2022-11-20T08:42:22;6.10;99.90
44117;DHT22;29781;49.480;8.512;2022-11-20T08:44:47;6.10;99.90
44117;DHT22;29781;49.480;8.512;2022-11-20T08:47:13;6.10;99.90
44117;DHT22;29781;49.480;8.512;2022-11-20T08:49:38;6.10;99.90
44117;DHT22;29781;49.480;8.512;2022-11-20T08:52:04;6.00;99.90
44117;DHT22;29781;49.480;8.512;2022-11-20T08:54:29;5.80;99.90
44117;DHT22;29781;49.480;8.512;2022-11-20T08:56:55;5.70;99.90
44117;DHT22;29781;49.480;8.512;2022-11-20T08:59:20;5.70;99.90
44117;DHT22;29781;49.480;8.512;2022-11-20T09:01:46;5.50;99.90
44117;DHT22;29781;49.480;8.512;2022-11-20T09:04:11;5.40;99.90
44117;DHT22;29781;49.480;8.512;2022-11-20T09:06:39;5.30;99.90
44117;DHT22;29781;49.480;8.512;2022-11-20T09:09:05;5.10;99.90
44117;DHT22;29781;49.480;8.512;2022-11-20T09:11:31;5.10;99.90
44117;DHT22;29781;49.480;8.512;2022-11-20T09:13:57;4.90;99.90
44117;DHT22;29781;49.480;8.512;2022-11-20T09:16:22;4.60;99.90
44117;DHT22;29781;49.480;8.512;2022-11-20T09:18:49;4.50;99.90
44117;DHT22;29781;49.480;8.512;2022-11-20T09:21:14;4.30;99.90
44117;DHT22;29781;49.480;8.512;2022-11-20T09:23:40;4.40;99.90
44117;DHT22;29781;49.480;8.512;2022-11-20T09:26:10;4.30;99.90
44117;DHT22;29781;49.480;8.512;2022-11-20T09:28:35;4.40;99.90
44117;DHT22;29781;49.480;8.512;2022-11-20T09:31:04;4.40;99.90
44117;DHT22;29781;49.480;8.512;2022-11-20T09:33:30;4.50;99.90
44117;DHT22;29781;49.480;8.512;2022-11-20T09:35:55;4.50;99.90
44117;DHT22;29781;49.480;8.512;2022-11-20T09:38:21;4.50;99.90
44117;DHT22;29781;49.480;8.512;2022-11-20T09:40:52;4.60;99.90
44117;DHT22;29781;49.480;8.512;2022-11-20T09:45:56;4.40;99.90
44117;DHT22;29781;49.480;8.512;2022-11-20T09:53:24;4.60;99.90
44117;DHT22;29781;49.480;8.512;2022-11-20T09:55:52;4.50;99.90
44117;DHT22;29781;49.480;8.512;2022-11-20T09:58:23;4.50;99.90
44117;DHT22;29781;49.480;8.512;2022-11-20T10:00:50;4.60;99.90
44117;DHT22;29781;49.480;8.512;2022-11-20T10:03:17;4.60;99.90
44117;DHT22;29781;49.480;8.512;2022-11-20T10:05:45;4.70;99.90
44117;DHT22;29781;49.480;8.512;2022-11-20T10:08:17;4.60;99.90
44117;DHT22;29781;49.480;8.512;2022-11-20T10:14:11;4.40;99.90
44117;DHT22;29781;49.480;8.512;2022-11-20T10:16:17;4.40;99.90
44117;DHT22;29781;49.480;8.512;2022-11-20T10:18:50;4.50;99.90
44117;DHT22;29781;49.480;8.512;2022-11-20T10:26:22;4.60;99.90
44117;DHT22;29781;49.480;8.512;2022-11-20T10:31:42;4.70;99.90
44117;DHT22;29781;49.480;8.512;2022-11-20T10:36:45;4.60;99.90
44117;DHT22;29781;49.480;8.512;2022-11-20T10:39:15;4.60;99.90
44117;DHT22;29781;49.480;8.512;2022-11-20T10:41:43;4.60;99.90
44117;DHT22;29781;49.480;8.512;2022-11-20T10:44:16;4.70;99.90
44117;DHT22;29781;49.480;8.512;2022-11-20T10:47:03;4.80;99.90
44117;DHT22;29781;49.480;8.512;2022-11-20T10:49:29;4.90;99.90
44117;DHT22;29781;49.480;8.512;2022-11-20T10:57:00;5.60;99.90
44117;DHT22;29781;49.480;8.512;2022-11-20T11:02:01;5.40;99.90
44117;DHT22;29781;49.480;8.512;2022-11-20T11:04:36;5.40;99.90
44117;DHT22;29781;49.480;8.512;2022-11-20T11:07:45;5.50;99.90
44117;DHT22;29781;49.480;8.512;2022-11-20T11:09:53;5.80;99.90
44117;DHT22;29781;49.480;8.512;2022-11-20T11:12:19;5.90;99.90
44117;DHT22;29781;49.480;8.512;2022-11-20T11:14:49;5.90;99.90
44117;DHT22;29781;49.480;8.512;2022-11-20T11:17:21;5.60;99.90
44117;DHT22;29781;49.480;8.512;2022-11-20T11:19:56;5.70;99.90
44117;DHT22;29781;49.480;8.512;2022-11-20T11:22:21;5.80;99.90
44117;DHT22;29781;49.480;8.512;2022-11-20T11:24:53;6.10;99.90
44117;DHT22;29781;49.480;8.512;2022-11-20T11:27:19;6.30;99.90
44117;DHT22;29781;49.480;8.512;2022-11-20T11:29:45;6.50;99.90
44117;DHT22;29781;49.480;8.512;2022-11-20T11:34:36;7.60;99.90
44117;DHT22;29781;49.480;8.512;2022-11-20T11:37:01;8.50;99.90
44117;DHT22;29781;49.480;8.512;2022-11-20T11:39:29;9.20;99.90
44117;DHT22;29781;49.480;8.512;2022-11-20T11:41:55;9.40;99.90
44117;DHT22;29781;49.480;8.512;2022-11-20T11:44:23;9.90;99.90
44117;DHT22;29781;49.480;8.512;2022-11-20T11:47:29;10.20;99.90
44117;DHT22;29781;49.480;8.512;2022-11-20T11:52:33;9.40;99.90
44117;DHT22;29781;49.480;8.512;2022-11-20T11:55:04;8.80;99.90
44117;DHT22;29781;49.480;8.512;2022-11-20T12:02:32;7.40;99.90
44117;DHT22;29781;49.480;8.512;2022-11-20T12:05:02;7.20;99.90
44117;DHT22;29781;49.480;8.512;2022-11-20T12:09:54;7.10;99.90
44117;DHT22;29781;49.480;8.512;2022-11-20T12:12:24;7.30;99.90
44117;DHT22;29781;49.480;8.512;2022-11-20T12:14:53;7.30;99.90
44117;DHT22;29781;49.480;8.512;2022-11-20T12:17:19;7.50;99.90
44117;DHT22;29781;49.480;8.512;2022-11-20T12:19:45;7.70;99.90
44117;DHT22;29781;49.480;8.512;2022-11-20T12:22:18;7.90;99.90
44117;DHT22;29781;49.480;8.512;2022-11-20T12:25:00;8.20;99.90
44117;DHT22;29781;49.480;8.512;2022-11-20T12:30:15;8.60;99.90
44117;DHT22;29781;49.480;8.512;2022-11-20T12:43:20;8.80;99.90
44117;DHT22;29781;49.480;8.512;2022-11-20T12:46:21;8.80;99.90
44117;DHT22;29781;49.480;8.512;2022-11-20T12:49:02;8.80;99.90
44117;DHT22;29781;49.480;8.512;2022-11-20T13:02:03;8.60;99.90
44117;DHT22;29781;49.480;8.512;2022-11-20T13:07:01;8.50;99.90
44117;DHT22;29781;49.480;8.512;2022-11-20T13:09:27;8.50;99.90
44117;DHT22;29781;49.480;8.512;2022-11-20T13:16:52;8.50;99.90
44117;DHT22;29781;49.480;8.512;2022-11-20T13:19:19;8.50;99.90
44117;DHT22;29781;49.480;8.512;2022-11-20T13:21:45;8.50;99.90
44117;DHT22;29781;49.480;8.512;2022-11-20T13:27:04;8.50;99.90
44117;DHT22;29781;49.480;8.512;2022-11-20T13:29:31;8.50;99.90
44117;DHT22;29781;49.480;8.512;2022-11-20T13:34:30;8.70;99.90
44117;DHT22;29781;49.480;8.512;2022-11-20T13:36:57;8.70;99.90
44117;DHT22;29781;49.480;8.512;2022-11-20T13:39:30;8.80;99.90
44117;DHT22;29781;49.480;8.512;2022-11-20T13:41:57;8.80;99.90
44117;DHT22;29781;49.480;8.512;2022-11-20T13:46:48;8.90;99.90
44117;DHT22;29781;49.480;8.512;2022-11-20T13:49:18;9.00;99.90
44117;DHT22;29781;49.480;8.512;2022-11-20T13:51:46;9.00;99.90
44117;DHT22;29781;49.480;8.512;2022-11-20T14:02:11;9.10;99.90
44117;DHT22;29781;49.480;8.512;2022-11-20T14:04:38;9.10;99.90
44117;DHT22;29781;49.480;8.512;2022-11-20T14:07:07;9.20;99.90
44117;DHT22;29781;49.480;8.512;2022-11-20T14:09:34;9.20;99.90
44117;DHT22;29781;49.480;8.512;2022-11-20T14:12:01;9.30;99.90
44117;DHT22;29781;49.480;8.512;2022-11-20T14:14:27;9.20;99.90
44117;DHT22;29781;49.480;8.512;2022-11-20T14:17:04;9.30;99.90
44117;DHT22;29781;49.480;8.512;2022-11-20T14:19:30;9.30;99.90
44117;DHT22;29781;49.480;8.512;2022-11-20T14:24:40;9.20;99.90
44117;DHT22;29781;49.480;8.512;2022-11-20T14:27:11;9.20;99.90
44117;DHT22;29781;49.480;8.512;2022-11-20T14:29:37;9.20;99.90
44117;DHT22;29781;49.480;8.512;2022-11-20T14:32:03;9.10;99.90
44117;DHT22;29781;49.480;8.512;2022-11-20T14:34:30;8.90;99.90
44117;DHT22;29781;49.480;8.512;2022-11-20T14:36:57;8.90;99.90
44117;DHT22;29781;49.480;8.512;2022-11-20T14:39:26;8.90;99.90
44117;DHT22;29781;49.480;8.512;2022-11-20T14:41:54;8.80;99.90
44117;DHT22;29781;49.480;8.512;2022-11-20T14:44:21;8.80;99.90
44117;DHT22;29781;49.480;8.512;2022-11-20T14:46:49;8.60;99.90
44117;DHT22;29781;49.480;8.512;2022-11-20T14:49:15;8.70;99.90
44117;DHT22;29781;49.480;8.512;2022-11-20T14:51:41;8.60;99.90
44117;DHT22;29781;49.480;8.512;2022-11-20T14:56:35;8.60;99.90
44117;DHT22;29781;49.480;8.512;2022-11-20T14:59:01;8.60;99.90
44117;DHT22;29781;49.480;8.512;2022-11-20T15:01:27;8.70;99.90
44117;DHT22;29781;49.480;8.512;2022-11-20T15:04:11;8.60;99.90
44117;DHT22;29781;49.480;8.512;2022-11-20T15:06:37;8.60;99.90
44117;DHT22;29781;49.480;8.512;2022-11-20T15:09:12;8.60;99.90
44117;DHT22;29781;49.480;8.512;2022-11-20T15:11:38;8.60;99.90
44117;DHT22;29781;49.480;8.512;2022-11-20T15:14:04;8.60;99.90
44117;DHT22;29781;49.480;8.512;2022-11-20T15:16:31;8.60;99.90
44117;DHT22;29781;49.480;8.512;2022-11-20T15:18:56;8.60;99.90
44117;DHT22;29781;49.480;8.512;2022-11-20T15:21:22;8.60;99.90
44117;DHT22;29781;49.480;8.512;2022-11-20T15:23:48;8.60;99.90
44117;DHT22;29781;49.480;8.512;2022-11-20T15:26:14;8.60;99.90
44117;DHT22;29781;49.480;8.512;2022-11-20T15:28:44;8.60;99.90
44117;DHT22;29781;49.480;8.512;2022-11-20T15:31:13;8.50;99.90
44117;DHT22;29781;49.480;8.512;2022-11-20T15:33:39;8.50;99.90
44117;DHT22;29781;49.480;8.512;2022-11-20T15:36:05;8.50;99.90
44117;DHT22;29781;49.480;8.512;2022-11-20T15:38:30;8.50;99.90
44117;DHT22;29781;49.480;8.512;2022-11-20T15:40:56;8.50;99.90
44117;DHT22;29781;49.480;8.512;2022-11-20T15:43:22;8.40;99.90
44117;DHT22;29781;49.480;8.512;2022-11-20T15:45:48;8.40;99.90
44117;DHT22;29781;49.480;8.512;2022-11-20T15:48:16;8.40;99.90
44117;DHT22;29781;49.480;8.512;2022-11-20T15:50:46;8.40;99.90
44117;DHT22;29781;49.480;8.512;2022-11-20T15:53:13;8.40;99.90
44117;DHT22;29781;49.480;8.512;2022-11-20T15:55:39;8.40;99.90
44117;DHT22;29781;49.480;8.512;2022-11-20T15:58:04;8.40;99.90
44117;DHT22;29781;49.480;8.512;2022-11-20T16:00:30;8.40;99.90
44117;DHT22;29781;49.480;8.512;2022-11-20T16:02:56;8.40;99.90
44117;DHT22;29781;49.480;8.512;2022-11-20T16:05:21;8.40;99.90
44117;DHT22;29781;49.480;8.512;2022-11-20T16:07:48;8.30;99.90
44117;DHT22;29781;49.480;8.512;2022-11-20T16:10:15;8.30;99.90
44117;DHT22;29781;49.480;8.512;2022-11-20T16:12:40;8.30;99.90
44117;DHT22;29781;49.480;8.512;2022-11-20T16:15:24;8.30;99.90
44117;DHT22;29781;49.480;8.512;2022-11-20T16:18:09;8.40;99.90
44117;DHT22;29781;49.480;8.512;2022-11-20T16:20:35;8.40;99.90
44117;DHT22;29781;49.480;8.512;2022-11-20T16:23:01;8.30;99.90
44117;DHT22;29781;49.480;8.512;2022-11-20T16:25:26;8.30;99.90
44117;DHT22;29781;49.480;8.512;2022-11-20T16:27:52;8.30;99.90
44117;DHT22;29781;49.480;8.512;2022-11-20T16:30:17;8.30;99.90
44117;DHT22;29781;49.480;8.512;2022-11-20T16:32:43;8.30;99.90
44117;DHT22;29781;49.480;8.512;2022-11-20T16:35:09;8.20;99.90
44117;DHT22;29781;49.480;8.512;2022-11-20T16:37:34;8.30;99.90
44117;DHT22;29781;49.480;8.512;2022-11-20T16:40:00;8.30;99.90
44117;DHT22;29781;49.480;8.512;2022-11-20T16:42:25;8.30;99.90
44117;DHT22;29781;49.480;8.512;2022-11-20T16:44:51;8.30;99.90
44117;DHT22;29781;49.480;8.512;2022-11-20T16:47:16;8.30;99.90
44117;DHT22;29781;49.480;8.512;2022-11-20T16:49:42;8.30;99.90
44117;DHT22;29781;49.480;8.512;2022-11-20T16:52:07;8.40;99.90
44117;DHT22;29781;49.480;8.512;2022-11-20T16:54:33;8.40;99.90
44117;DHT22;29781;49.480;8.512;2022-11-20T16:56:58;8.40;99.90
44117;DHT22;29781;49.480;8.512;2022-11-20T16:59:24;8.40;99.90
44117;DHT22;29781;49.480;8.512;2022-11-20T17:01:49;8.40;99.90
44117;DHT22;29781;49.480;8.512;2022-11-20T17:04:15;8.30;99.90
44117;DHT22;29781;49.480;8.512;2022-11-20T17:06:41;8.30;99.90
44117;DHT22;29781;49.480;8.512;2022-11-20T17:09:08;8.30;99.90
44117;DHT22;29781;49.480;8.512;2022-11-20T17:11:34;8.30;99.90
44117;DHT22;29781;49.480;8.512;2022-11-20T17:14:00;8.30;99.90
44117;DHT22;29781;49.480;8.512;2022-11-20T17:16:27;8.30;99.90
44117;DHT22;29781;49.480;8.512;2022-11-20T17:18:56;8.20;99.90
44117;DHT22;29781;49.480;8.512;2022-11-20T17:21:22;8.10;99.90
44117;DHT22;29781;49.480;8.512;2022-11-20T17:23:48;7.90;99.90
44117;DHT22;29781;49.480;8.512;2022-11-20T17:26:14;7.90;99.90